Time;durP1;ratioP1;P1;durP2;ratioP2;P2;SDS_P1;SDS_P2;PMS_P1;PMS_P2;Temp;Humidity;BMP_temperature;BMP_pressure;BME280_temperature;BME280_humidity;BME280_pressure;Samples;Min_cycle;Max_cycle;Signal;HPM_P1;HPM_P2
2023/01/27 00:00:05;;;;;;;9.23;6.47;;;;;;;;;;5094502;28;20456;-79
2023/01/27 00:02:32;;;;;;;8.07;5.07;;;;;;;;;;5092704;28;20447;-79
2023/01/27 00:04:59;;;;;;;7.30;4.80;;;;;;;;;;5094470;28;20444;-78
2023/01/27 00:07:26;;;;;;;8.50;4.57;;;;;;;;;;5093454;28;20547;-78
2023/01/27 00:09:53;;;;;;;8.97;4.27;;;;;;;;;;5094446;28;20444;-79
2023/01/27 00:15:08;;;;;;;7.90;4.63;;;;;;;;;;5094269;28;20431;-79
2023/01/27 00:17:35;;;;;;;6.97;4.87;;;;;;;;;;5093231;28;20447;-79
2023/01/27 00:20:03;;;;;;;6.93;3.83;;;;;;;;;;5093802;28;20932;-79
2023/01/27 00:25:15;;;;;;;9.80;6.10;;;;;;;;;;5094072;28;20969;-78
2023/01/27 00:27:42;;;;;;;7.03;6.10;;;;;;;;;;5093282;28;20806;-79
2023/01/27 00:30:11;;;;;;;6.40;4.30;;;;;;;;;;5092776;28;20463;-79
2023/01/27 00:35:24;;;;;;;9.87;4.80;;;;;;;;;;5093092;28;20428;-78
2023/01/27 00:37:51;;;;;;;5.53;3.27;;;;;;;;;;5088883;28;20524;-78
2023/01/27 00:40:18;;;;;;;10.57;6.40;;;;;;;;;;5091382;28;20447;-79
2023/01/27 00:42:45;;;;;;;9.60;4.00;;;;;;;;;;5093775;28;20457;-79
2023/01/27 00:47:58;;;;;;;7.93;4.40;;;;;;;;;;5089701;28;20947;-77
2023/01/27 00:50:25;;;;;;;8.37;4.87;;;;;;;;;;5093010;28;20460;-79
2023/01/27 00:52:53;;;;;;;10.00;4.57;;;;;;;;;;5084040;28;20924;-79
2023/01/27 00:55:20;;;;;;;7.87;4.50;;;;;;;;;;5092940;28;20475;-77
2023/01/27 00:57:47;;;;;;;7.50;5.57;;;;;;;;;;5093239;28;20448;-79
2023/01/27 01:00:16;;;;;;;10.30;7.50;;;;;;;;;;5093696;28;20448;-79
2023/01/27 01:02:44;;;;;;;9.27;5.53;;;;;;;;;;5092820;28;20536;-78
2023/01/27 01:05:11;;;;;;;10.90;5.17;;;;;;;;;;5093156;28;20444;-79
2023/01/27 01:07:38;;;;;;;6.50;4.40;;;;;;;;;;5092376;28;20958;-78
2023/01/27 01:10:06;;;;;;;10.10;5.17;;;;;;;;;;5093249;28;20452;-78
2023/01/27 01:12:33;;;;;;;8.93;5.90;;;;;;;;;;5092288;28;20462;-78
2023/01/27 01:15:00;;;;;;;8.33;5.20;;;;;;;;;;5093105;28;20485;-78
2023/01/27 01:17:27;;;;;;;8.10;4.90;;;;;;;;;;5091675;28;20449;-79
2023/01/27 01:19:55;;;;;;;11.73;6.33;;;;;;;;;;5093218;28;20444;-79
2023/01/27 01:22:23;;;;;;;10.07;5.90;;;;;;;;;;5092236;28;20437;-79
2023/01/27 01:24:50;;;;;;;5.37;4.60;;;;;;;;;;5092614;28;20534;-78
2023/01/27 01:27:17;;;;;;;4.50;3.53;;;;;;;;;;5092571;28;20452;-79
2023/01/27 01:29:44;;;;;;;6.67;5.40;;;;;;;;;;5092986;28;20849;-80
2023/01/27 01:32:11;;;;;;;13.47;4.60;;;;;;;;;;5092698;28;20449;-80
2023/01/27 01:34:38;;;;;;;15.37;6.90;;;;;;;;;;5092128;28;20488;-80
2023/01/27 01:37:07;;;;;;;10.97;5.43;;;;;;;;;;5091722;28;20449;-79
2023/01/27 01:39:34;;;;;;;11.53;6.20;;;;;;;;;;5086539;28;20460;-78
2023/01/27 01:42:01;;;;;;;12.37;5.67;;;;;;;;;;5088204;28;20463;-78
2023/01/27 01:44:29;;;;;;;9.63;4.60;;;;;;;;;;5092094;28;20472;-78
2023/01/27 01:46:56;;;;;;;11.10;5.67;;;;;;;;;;5081362;28;20441;-78
2023/01/27 01:49:24;;;;;;;6.53;4.63;;;;;;;;;;5091454;28;20458;-72
2023/01/27 01:51:53;;;;;;;12.20;5.80;;;;;;;;;;5091684;28;20451;-78
2023/01/27 01:54:24;;;;;;;6.83;4.40;;;;;;;;;;5091315;28;20476;-78
2023/01/27 01:56:53;;;;;;;10.60;4.77;;;;;;;;;;5091509;28;20441;-78
2023/01/27 01:59:22;;;;;;;14.10;7.50;;;;;;;;;;5090729;28;20457;-78
2023/01/27 02:01:49;;;;;;;8.37;5.63;;;;;;;;;;5078395;28;20581;-75
2023/01/27 02:04:18;;;;;;;9.33;5.13;;;;;;;;;;5091950;28;20468;-80
2023/01/27 02:06:49;;;;;;;8.50;5.03;;;;;;;;;;5091196;28;20452;-80
2023/01/27 02:09:16;;;;;;;12.93;5.70;;;;;;;;;;5091809;28;20461;-77
2023/01/27 02:11:45;;;;;;;6.87;4.23;;;;;;;;;;5081714;28;20463;-79
2023/01/27 02:14:13;;;;;;;11.80;6.20;;;;;;;;;;5091256;28;20486;-80
2023/01/27 02:16:40;;;;;;;6.83;4.50;;;;;;;;;;5090935;28;20448;-79
2023/01/27 02:19:09;;;;;;;6.93;4.97;;;;;;;;;;5090925;28;20735;-79
2023/01/27 02:21:36;;;;;;;13.33;5.40;;;;;;;;;;5100757;28;20457;-80
2023/01/27 02:24:09;;;;;;;5.37;3.33;;;;;;;;;;5092840;28;20812;-79
2023/01/27 02:26:39;;;;;;;15.43;4.37;;;;;;;;;;5090727;28;20463;-79
2023/01/27 02:29:07;;;;;;;5.73;3.53;;;;;;;;;;5091797;28;20806;-80
2023/01/27 02:31:35;;;;;;;7.10;6.43;;;;;;;;;;5090453;28;20572;-79
2023/01/27 02:34:03;;;;;;;5.67;3.93;;;;;;;;;;5090707;28;20486;-79
2023/01/27 02:36:32;;;;;;;8.13;3.90;;;;;;;;;;5090308;28;20820;-78
2023/01/27 02:39:00;;;;;;;7.90;4.60;;;;;;;;;;5090963;28;20494;-79
2023/01/27 02:41:28;;;;;;;8.60;3.97;;;;;;;;;;5089829;28;20473;-78
2023/01/27 02:43:57;;;;;;;5.80;4.17;;;;;;;;;;5090990;28;20471;-79
2023/01/27 02:46:24;;;;;;;6.20;4.30;;;;;;;;;;5090706;28;20455;-77
2023/01/27 02:48:51;;;;;;;13.10;6.07;;;;;;;;;;5091381;28;20444;-79
2023/01/27 02:51:18;;;;;;;3.43;3.00;;;;;;;;;;5090737;28;20841;-79
2023/01/27 02:53:46;;;;;;;8.17;4.93;;;;;;;;;;5090725;28;20847;-78
2023/01/27 02:56:13;;;;;;;5.20;3.67;;;;;;;;;;5090521;28;20456;-77
2023/01/27 02:58:40;;;;;;;6.23;3.43;;;;;;;;;;5082000;28;20445;-77
2023/01/27 03:01:10;;;;;;;6.90;4.30;;;;;;;;;;5090531;28;20456;-77
2023/01/27 03:03:42;;;;;;;8.60;4.77;;;;;;;;;;5090034;28;20453;-77
2023/01/27 03:06:09;;;;;;;6.60;4.60;;;;;;;;;;5090251;28;20524;-78
2023/01/27 03:08:36;;;;;;;7.00;4.30;;;;;;;;;;5090311;28;20816;-78
2023/01/27 03:11:04;;;;;;;6.93;3.83;;;;;;;;;;5090474;28;20468;-78
2023/01/27 03:13:31;;;;;;;6.03;4.87;;;;;;;;;;5089660;28;20936;-77
2023/01/27 03:18:46;;;;;;;6.57;3.80;;;;;;;;;;5090294;28;20504;-78
2023/01/27 03:21:13;;;;;;;6.63;3.53;;;;;;;;;;5098109;28;20450;-78
2023/01/27 03:23:40;;;;;;;7.27;5.93;;;;;;;;;;5096210;28;20461;-78
2023/01/27 03:26:08;;;;;;;7.53;4.33;;;;;;;;;;5090109;28;20948;-78
2023/01/27 03:28:36;;;;;;;5.03;2.83;;;;;;;;;;5090369;28;20448;-78
2023/01/27 03:31:03;;;;;;;7.17;3.50;;;;;;;;;;5089988;28;20931;-76
2023/01/27 03:33:30;;;;;;;5.77;4.33;;;;;;;;;;5085070;28;20449;-77
2023/01/27 03:47:00;;;;;;;8.10;3.67;;;;;;;;;;5090273;28;20965;-77
2023/01/27 03:49:27;;;;;;;6.20;3.67;;;;;;;;;;5090255;28;20540;-78
2023/01/27 03:51:55;;;;;;;5.90;3.90;;;;;;;;;;5090162;28;20444;-78
2023/01/27 03:54:22;;;;;;;4.50;4.07;;;;;;;;;;5090017;28;20492;-78
2023/01/27 03:56:50;;;;;;;7.17;4.37;;;;;;;;;;5090210;28;20459;-76
2023/01/27 03:59:17;;;;;;;8.87;5.87;;;;;;;;;;5090799;28;20456;-78
2023/01/27 04:01:45;;;;;;;9.30;6.03;;;;;;;;;;5090751;28;20514;-78
2023/01/27 04:06:59;;;;;;;4.40;3.40;;;;;;;;;;5082850;28;20428;-78
2023/01/27 04:09:27;;;;;;;9.00;5.77;;;;;;;;;;5080320;28;20456;-78
2023/01/27 04:11:54;;;;;;;8.03;5.30;;;;;;;;;;5094103;28;20467;-78
2023/01/27 04:14:22;;;;;;;5.17;4.67;;;;;;;;;;5091793;28;20521;-76
2023/01/27 04:16:49;;;;;;;7.13;5.10;;;;;;;;;;5092668;28;20453;-76
2023/01/27 04:19:16;;;;;;;6.80;3.73;;;;;;;;;;5083988;28;20882;-78
2023/01/27 04:21:43;;;;;;;9.70;5.23;;;;;;;;;;5092632;28;20448;-77
2023/01/27 04:24:22;;;;;;;7.13;4.77;;;;;;;;;;5093617;28;20563;-78
2023/01/27 04:26:50;;;;;;;7.77;4.30;;;;;;;;;;5093187;28;20448;-72
2023/01/27 04:29:18;;;;;;;8.20;4.57;;;;;;;;;;5090750;28;20436;-77
2023/01/27 04:31:45;;;;;;;10.63;5.40;;;;;;;;;;5093727;28;20911;-77
2023/01/27 04:34:12;;;;;;;15.43;5.10;;;;;;;;;;5093456;28;20475;-78
2023/01/27 04:36:40;;;;;;;7.03;4.57;;;;;;;;;;5091948;28;20464;-77
2023/01/27 04:39:07;;;;;;;7.07;3.80;;;;;;;;;;5081045;28;20439;-78
2023/01/27 04:41:36;;;;;;;7.83;4.30;;;;;;;;;;5092104;28;20457;-77
2023/01/27 04:44:03;;;;;;;5.07;4.00;;;;;;;;;;5093444;28;20491;-77
2023/01/27 04:46:30;;;;;;;7.57;5.97;;;;;;;;;;5089235;28;20433;-77
2023/01/27 04:48:57;;;;;;;12.07;7.40;;;;;;;;;;5092323;28;20916;-77
2023/01/27 04:51:25;;;;;;;7.77;4.90;;;;;;;;;;5092449;28;20981;-78
2023/01/27 04:53:52;;;;;;;7.07;4.13;;;;;;;;;;5093362;28;20437;-76
2023/01/27 04:56:23;;;;;;;7.80;4.27;;;;;;;;;;5087319;28;20459;-71
2023/01/27 04:58:51;;;;;;;8.07;5.13;;;;;;;;;;5087855;28;20441;-76
2023/01/27 05:01:18;;;;;;;6.73;3.83;;;;;;;;;;5093459;28;20433;-76
2023/01/27 05:03:46;;;;;;;11.27;6.90;;;;;;;;;;5093137;28;20436;-75
2023/01/27 05:06:13;;;;;;;9.73;4.40;;;;;;;;;;5091933;28;20919;-75
2023/01/27 05:08:40;;;;;;;5.73;4.40;;;;;;;;;;5090969;28;20448;-75
2023/01/27 05:11:07;;;;;;;4.57;4.00;;;;;;;;;;5093132;28;20432;-75
2023/01/27 05:13:34;;;;;;;9.43;5.30;;;;;;;;;;5088183;28;20906;-75
2023/01/27 05:16:07;;;;;;;13.07;5.20;;;;;;;;;;5088887;28;20523;-75
2023/01/27 05:18:34;;;;;;;10.53;6.20;;;;;;;;;;5091899;28;21014;-75
2023/01/27 05:21:02;;;;;;;13.53;6.37;;;;;;;;;;5092987;28;20440;-74
2023/01/27 05:23:35;;;;;;;10.40;5.10;;;;;;;;;;5091711;28;20447;-71
2023/01/27 05:26:03;;;;;;;11.97;8.63;;;;;;;;;;5089161;28;20437;-75
2023/01/27 05:28:30;;;;;;;11.17;6.40;;;;;;;;;;5092162;28;20444;-73
2023/01/27 05:31:01;;;;;;;10.37;6.27;;;;;;;;;;5092898;28;20444;-73
2023/01/27 05:33:29;;;;;;;6.97;6.10;;;;;;;;;;5092096;28;20445;-74
2023/01/27 05:35:58;;;;;;;7.47;6.27;;;;;;;;;;5091696;28;21011;-74
2023/01/27 05:38:25;;;;;;;10.80;6.67;;;;;;;;;;5091558;28;20448;-73
2023/01/27 05:40:55;;;;;;;10.13;5.27;;;;;;;;;;5092416;28;20519;-73
2023/01/27 05:43:22;;;;;;;10.80;6.87;;;;;;;;;;5091624;28;20452;-73
2023/01/27 05:45:49;;;;;;;10.23;7.57;;;;;;;;;;5092349;28;20480;-71
2023/01/27 05:48:16;;;;;;;9.40;4.47;;;;;;;;;;5091788;28;20921;-73
2023/01/27 05:50:53;;;;;;;11.00;6.43;;;;;;;;;;5091870;28;20445;-78
2023/01/27 05:53:21;;;;;;;10.40;5.30;;;;;;;;;;5091729;28;20445;-76
2023/01/27 05:55:48;;;;;;;9.27;5.60;;;;;;;;;;5091436;28;20519;-76
2023/01/27 05:58:16;;;;;;;24.43;6.83;;;;;;;;;;5091936;28;20455;-76
2023/01/27 06:00:43;;;;;;;11.23;7.00;;;;;;;;;;5091810;28;20441;-76
2023/01/27 06:03:10;;;;;;;12.00;7.30;;;;;;;;;;5091754;28;20451;-76
2023/01/27 06:05:37;;;;;;;7.33;4.43;;;;;;;;;;5091083;28;20483;-76
2023/01/27 06:08:05;;;;;;;10.27;6.20;;;;;;;;;;5091963;28;20452;-75
2023/01/27 06:10:36;;;;;;;11.23;5.60;;;;;;;;;;5091203;28;20441;-77
2023/01/27 06:13:03;;;;;;;8.33;5.50;;;;;;;;;;5091843;28;20449;-76
2023/01/27 06:15:30;;;;;;;11.80;6.67;;;;;;;;;;5088695;28;20473;-76
2023/01/27 06:17:57;;;;;;;6.37;5.13;;;;;;;;;;5088249;28;20456;-73
2023/01/27 06:20:25;;;;;;;7.50;5.10;;;;;;;;;;5091115;28;20446;-78
2023/01/27 06:22:52;;;;;;;11.80;6.17;;;;;;;;;;5086497;28;20494;-76
2023/01/27 06:25:20;;;;;;;13.07;6.70;;;;;;;;;;5089692;28;20531;-73
2023/01/27 06:27:48;;;;;;;13.60;6.10;;;;;;;;;;5091747;28;20448;-80
2023/01/27 06:30:15;;;;;;;9.70;5.63;;;;;;;;;;5091931;28;20559;-81
2023/01/27 06:32:42;;;;;;;7.10;5.70;;;;;;;;;;5089299;28;20442;-77
2023/01/27 06:35:09;;;;;;;8.10;6.37;;;;;;;;;;5088970;28;20484;-78
2023/01/27 06:37:37;;;;;;;8.33;5.30;;;;;;;;;;5090560;28;20792;-75
2023/01/27 06:40:04;;;;;;;7.30;5.27;;;;;;;;;;5090303;28;20444;-76
2023/01/27 06:42:32;;;;;;;12.10;6.57;;;;;;;;;;5091024;28;20452;-75
2023/01/27 06:44:59;;;;;;;10.00;4.63;;;;;;;;;;5091352;28;20487;-75
2023/01/27 06:47:27;;;;;;;6.20;4.37;;;;;;;;;;5090137;28;20452;-76
2023/01/27 06:49:54;;;;;;;8.73;5.67;;;;;;;;;;5075702;28;20453;-75
2023/01/27 06:52:21;;;;;;;7.67;5.67;;;;;;;;;;5090490;28;20454;-77
2023/01/27 06:54:48;;;;;;;6.83;4.70;;;;;;;;;;5090993;28;20445;-78
2023/01/27 06:57:16;;;;;;;8.53;5.33;;;;;;;;;;5090640;28;20449;-78
2023/01/27 06:59:44;;;;;;;11.03;4.97;;;;;;;;;;5089693;28;20649;-75
2023/01/27 07:02:12;;;;;;;5.80;4.03;;;;;;;;;;5090588;28;20440;-75
2023/01/27 07:04:40;;;;;;;7.70;4.63;;;;;;;;;;5090441;28;20460;-74
2023/01/27 07:07:07;;;;;;;8.47;4.57;;;;;;;;;;5086805;28;20429;-75
2023/01/27 07:09:34;;;;;;;7.30;4.20;;;;;;;;;;5089786;28;20447;-74
2023/01/27 07:12:01;;;;;;;6.77;3.63;;;;;;;;;;5090982;28;20912;-76
2023/01/27 07:14:28;;;;;;;13.87;8.50;;;;;;;;;;5090614;28;20437;-77
2023/01/27 07:16:56;;;;;;;10.33;5.70;;;;;;;;;;5090733;28;20476;-76
2023/01/27 07:19:23;;;;;;;13.37;5.90;;;;;;;;;;5084385;28;20438;-73
2023/01/27 07:21:50;;;;;;;10.60;6.10;;;;;;;;;;5086321;28;20441;-75
2023/01/27 07:24:18;;;;;;;13.73;6.93;;;;;;;;;;5091252;28;20436;-71
2023/01/27 07:26:46;;;;;;;8.03;5.20;;;;;;;;;;5091076;28;20444;-71
2023/01/27 07:29:13;;;;;;;10.10;5.07;;;;;;;;;;5091223;28;20859;-71
2023/01/27 07:31:41;;;;;;;6.30;3.73;;;;;;;;;;5090685;28;20800;-72
2023/01/27 07:34:09;;;;;;;12.70;5.60;;;;;;;;;;5090551;28;20932;-72
2023/01/27 07:36:36;;;;;;;9.20;6.87;;;;;;;;;;5088969;28;20476;-71
2023/01/27 07:39:03;;;;;;;7.63;3.60;;;;;;;;;;5092495;28;20450;-72
2023/01/27 07:41:30;;;;;;;6.37;4.60;;;;;;;;;;5093889;28;20928;-71
2023/01/27 07:43:57;;;;;;;10.17;6.20;;;;;;;;;;5094557;28;20472;-69
2023/01/27 07:46:25;;;;;;;10.87;5.50;;;;;;;;;;5093102;28;20453;-74
2023/01/27 07:48:52;;;;;;;11.53;7.50;;;;;;;;;;5092822;28;20470;-71
2023/01/27 07:51:20;;;;;;;9.27;4.43;;;;;;;;;;5094478;28;20444;-69
2023/01/27 07:53:47;;;;;;;13.00;6.40;;;;;;;;;;5093752;28;20443;-72
2023/01/27 07:56:14;;;;;;;5.83;4.60;;;;;;;;;;5094072;28;20491;-70
2023/01/27 07:58:42;;;;;;;9.00;5.93;;;;;;;;;;5093826;28;20445;-70
2023/01/27 08:01:10;;;;;;;9.13;4.80;;;;;;;;;;5094482;28;20463;-72
2023/01/27 08:03:37;;;;;;;8.37;4.93;;;;;;;;;;5093953;28;20440;-72
2023/01/27 08:06:06;;;;;;;6.77;4.50;;;;;;;;;;5093481;28;20453;-72
2023/01/27 08:08:34;;;;;;;8.83;4.60;;;;;;;;;;5092859;28;20923;-78
2023/01/27 08:11:01;;;;;;;3.90;2.83;;;;;;;;;;5093960;28;20448;-76
2023/01/27 08:13:29;;;;;;;9.00;4.00;;;;;;;;;;5093790;28;20492;-73
2023/01/27 08:15:57;;;;;;;5.87;4.00;;;;;;;;;;5092737;28;20478;-74
2023/01/27 08:18:24;;;;;;;11.50;4.67;;;;;;;;;;5091852;28;20502;-71
2023/01/27 08:20:51;;;;;;;7.20;4.90;;;;;;;;;;5094256;28;20842;-74
2023/01/27 08:23:18;;;;;;;6.17;3.57;;;;;;;;;;5094240;28;20447;-72
2023/01/27 08:25:50;;;;;;;6.57;4.30;;;;;;;;;;5093626;28;20452;-72
2023/01/27 08:28:18;;;;;;;7.03;4.93;;;;;;;;;;5093930;28;20511;-76
2023/01/27 08:30:45;;;;;;;8.90;5.67;;;;;;;;;;5093898;28;20449;-70
2023/01/27 08:33:12;;;;;;;7.13;4.97;;;;;;;;;;5091606;28;20951;-77
2023/01/27 08:35:43;;;;;;;5.87;4.43;;;;;;;;;;5091495;28;20491;-76
2023/01/27 08:38:10;;;;;;;6.47;3.97;;;;;;;;;;5092749;28;20963;-77
2023/01/27 08:40:38;;;;;;;4.70;3.77;;;;;;;;;;5087680;28;20976;-78
2023/01/27 08:43:07;;;;;;;8.73;4.80;;;;;;;;;;5087506;28;20457;-76
2023/01/27 08:45:34;;;;;;;5.70;3.90;;;;;;;;;;5092223;28;20492;-77
2023/01/27 08:48:02;;;;;;;8.40;4.23;;;;;;;;;;5093281;28;20448;-76
2023/01/27 08:50:29;;;;;;;5.40;4.17;;;;;;;;;;5091548;28;20523;-78
2023/01/27 08:52:57;;;;;;;10.37;3.90;;;;;;;;;;5092802;28;20449;-77
2023/01/27 08:55:25;;;;;;;6.47;3.60;;;;;;;;;;5091616;28;20477;-75
2023/01/27 08:57:52;;;;;;;6.47;5.87;;;;;;;;;;5093191;28;20452;-76
2023/01/27 09:00:21;;;;;;;8.17;5.43;;;;;;;;;;5092218;28;20453;-71
2023/01/27 09:02:49;;;;;;;7.13;4.30;;;;;;;;;;5092520;28;20448;-76
2023/01/27 09:05:17;;;;;;;5.77;4.27;;;;;;;;;;5092578;28;20459;-76
2023/01/27 09:07:44;;;;;;;5.60;2.90;;;;;;;;;;5093049;28;20447;-75
2023/01/27 09:10:12;;;;;;;5.03;3.70;;;;;;;;;;5093136;28;20455;-77
2023/01/27 09:12:39;;;;;;;5.00;2.80;;;;;;;;;;5091399;28;20844;-76
2023/01/27 09:15:06;;;;;;;5.97;2.97;;;;;;;;;;5092851;28;20820;-76
2023/01/27 09:17:35;;;;;;;8.20;5.17;;;;;;;;;;5091477;28;20483;-76
2023/01/27 09:20:02;;;;;;;13.10;6.40;;;;;;;;;;5092814;28;20463;-75
2023/01/27 09:22:29;;;;;;;8.10;4.20;;;;;;;;;;5085614;28;20943;-74
2023/01/27 09:24:56;;;;;;;10.90;4.33;;;;;;;;;;5092075;28;20453;-76
2023/01/27 09:27:23;;;;;;;13.43;3.87;;;;;;;;;;5087373;28;20463;-76
2023/01/27 09:29:50;;;;;;;8.90;3.30;;;;;;;;;;5090514;28;20581;-75
2023/01/27 09:32:17;;;;;;;8.77;4.27;;;;;;;;;;5092177;28;20449;-75
2023/01/27 09:34:46;;;;;;;6.60;4.20;;;;;;;;;;5092015;28;20803;-76
2023/01/27 09:37:14;;;;;;;11.80;5.80;;;;;;;;;;5092099;28;20487;-78
2023/01/27 09:39:42;;;;;;;12.10;4.87;;;;;;;;;;5081724;28;20448;-77
2023/01/27 09:42:22;;;;;;;6.97;3.83;;;;;;;;;;5091935;28;20467;-75
2023/01/27 09:44:58;;;;;;;11.40;4.40;;;;;;;;;;5091296;28;20484;-73
2023/01/27 09:47:33;;;;;;;9.83;4.03;;;;;;;;;;5091476;28;20441;-76
2023/01/27 09:50:09;;;;;;;5.60;3.20;;;;;;;;;;5091749;28;20441;-75
2023/01/27 09:52:47;;;;;;;12.70;5.17;;;;;;;;;;5091427;28;20953;-70
2023/01/27 09:55:17;;;;;;;7.80;4.00;;;;;;;;;;5082737;28;20461;-76
2023/01/27 09:57:47;;;;;;;8.67;5.73;;;;;;;;;;5092187;28;20839;-73
2023/01/27 10:00:24;;;;;;;9.27;5.00;;;;;;;;;;5091777;28;20940;-76
2023/01/27 10:03:06;;;;;;;4.13;3.40;;;;;;;;;;5091711;28;20461;-71
2023/01/27 10:05:42;;;;;;;10.10;4.30;;;;;;;;;;5069965;28;20454;-72
2023/01/27 10:08:27;;;;;;;7.50;4.27;;;;;;;;;;5091483;28;20570;-72
2023/01/27 10:10:59;;;;;;;6.57;4.90;;;;;;;;;;5091730;28;20458;-72
2023/01/27 10:13:31;;;;;;;9.50;5.30;;;;;;;;;;5091610;28;20452;-74
2023/01/27 10:16:04;;;;;;;11.97;7.30;;;;;;;;;;5084320;28;20993;-73
2023/01/27 10:18:40;;;;;;;10.00;7.20;;;;;;;;;;5080317;28;20442;-71
2023/01/27 10:21:13;;;;;;;11.47;5.50;;;;;;;;;;5090689;28;20444;-72
2023/01/27 10:23:44;;;;;;;8.60;4.77;;;;;;;;;;5091142;28;20449;-72
2023/01/27 10:26:18;;;;;;;6.10;4.23;;;;;;;;;;5091323;28;20443;-72
2023/01/27 10:28:50;;;;;;;4.83;4.27;;;;;;;;;;5091421;28;20440;-72
2023/01/27 10:31:20;;;;;;;10.30;4.53;;;;;;;;;;5091889;28;20450;-72
2023/01/27 10:33:53;;;;;;;7.80;4.93;;;;;;;;;;5088059;28;20932;-72
2023/01/27 10:36:26;;;;;;;5.00;3.57;;;;;;;;;;5081046;28;20479;-72
2023/01/27 10:38:59;;;;;;;4.93;4.30;;;;;;;;;;5085227;28;20491;-73
2023/01/27 10:41:29;;;;;;;6.70;4.70;;;;;;;;;;5091075;28;20464;-73
2023/01/27 10:44:06;;;;;;;7.90;3.33;;;;;;;;;;5080511;28;20491;-72
2023/01/27 10:46:37;;;;;;;6.33;3.53;;;;;;;;;;5087827;28;20455;-73
2023/01/27 10:49:07;;;;;;;8.20;5.67;;;;;;;;;;5086180;28;20459;-72
2023/01/27 10:51:38;;;;;;;9.77;4.90;;;;;;;;;;5087797;28;20458;-72
2023/01/27 10:54:08;;;;;;;11.93;4.33;;;;;;;;;;5085316;28;20445;-72
2023/01/27 10:56:38;;;;;;;10.90;5.30;;;;;;;;;;5073653;28;20476;-73
2023/01/27 10:59:10;;;;;;;18.40;7.13;;;;;;;;;;5083426;28;20478;-72
2023/01/27 11:01:40;;;;;;;11.27;5.50;;;;;;;;;;5087312;28;20525;-72
2023/01/27 11:04:12;;;;;;;7.00;3.17;;;;;;;;;;5089032;28;20454;-72
2023/01/27 11:06:41;;;;;;;6.87;4.07;;;;;;;;;;5074782;28;20452;-72
2023/01/27 11:09:25;;;;;;;7.73;3.90;;;;;;;;;;5088191;28;20455;-72
2023/01/27 11:11:53;;;;;;;10.73;4.13;;;;;;;;;;5088490;28;20931;-72
2023/01/27 11:14:22;;;;;;;5.70;3.20;;;;;;;;;;5093230;28;20452;-72
2023/01/27 11:16:51;;;;;;;5.90;4.03;;;;;;;;;;5095027;28;20836;-71
2023/01/27 11:19:23;;;;;;;10.27;4.67;;;;;;;;;;5095168;28;20506;-72
2023/01/27 11:21:54;;;;;;;6.17;3.47;;;;;;;;;;5085991;28;20441;-71
2023/01/27 11:24:24;;;;;;;7.27;5.57;;;;;;;;;;5094249;28;21155;-72
2023/01/27 11:26:54;;;;;;;7.20;3.33;;;;;;;;;;5090024;28;20451;-72
2023/01/27 11:29:24;;;;;;;10.97;5.00;;;;;;;;;;5083973;28;20443;-72
2023/01/27 11:31:54;;;;;;;5.53;4.93;;;;;;;;;;5097619;28;20454;-71
2023/01/27 11:34:25;;;;;;;8.73;3.97;;;;;;;;;;5097215;28;20450;-72
2023/01/27 11:36:54;;;;;;;8.20;5.57;;;;;;;;;;5096881;28;20468;-72
2023/01/27 11:39:21;;;;;;;8.73;5.67;;;;;;;;;;5097079;28;20544;-72
2023/01/27 11:41:50;;;;;;;9.83;5.57;;;;;;;;;;5094963;28;20992;-73
2023/01/27 11:44:19;;;;;;;6.63;3.40;;;;;;;;;;5095049;28;21022;-73
2023/01/27 11:46:47;;;;;;;5.67;3.57;;;;;;;;;;5096565;28;20759;-72
2023/01/27 11:49:18;;;;;;;6.70;3.30;;;;;;;;;;5086349;28;20450;-71
2023/01/27 11:51:47;;;;;;;10.27;3.23;;;;;;;;;;5090787;28;20516;-71
2023/01/27 11:54:18;;;;;;;4.37;3.10;;;;;;;;;;5096813;28;20456;-71
2023/01/27 11:56:47;;;;;;;8.20;5.23;;;;;;;;;;5094626;28;20815;-71
2023/01/27 11:59:18;;;;;;;4.03;2.33;;;;;;;;;;5097150;28;20447;-72
2023/01/27 12:01:48;;;;;;;5.83;4.00;;;;;;;;;;5096920;28;20447;-72
2023/01/27 12:04:20;;;;;;;8.10;4.50;;;;;;;;;;5094267;28;20480;-71
2023/01/27 12:06:49;;;;;;;9.53;5.23;;;;;;;;;;5097261;28;20802;-71
2023/01/27 12:09:34;;;;;;;7.47;3.43;;;;;;;;;;5097215;28;20884;-72
2023/01/27 12:12:12;;;;;;;3.63;2.60;;;;;;;;;;5097321;28;20475;-71
2023/01/27 12:14:40;;;;;;;7.13;4.23;;;;;;;;;;5096196;28;20446;-71
2023/01/27 12:17:08;;;;;;;4.83;3.10;;;;;;;;;;5096294;28;20490;-71
2023/01/27 12:19:37;;;;;;;7.50;3.20;;;;;;;;;;5095166;28;20448;-71
2023/01/27 12:22:09;;;;;;;5.80;3.03;;;;;;;;;;5097056;28;20814;-71
2023/01/27 12:24:41;;;;;;;8.03;4.70;;;;;;;;;;5095424;28;20450;-71
2023/01/27 12:27:14;;;;;;;8.10;3.60;;;;;;;;;;5093156;28;20459;-73
2023/01/27 12:29:44;;;;;;;6.80;3.73;;;;;;;;;;5083323;28;20447;-71
2023/01/27 12:32:15;;;;;;;5.63;3.93;;;;;;;;;;5093873;28;20445;-71
2023/01/27 12:34:44;;;;;;;10.33;5.00;;;;;;;;;;5092190;28;20486;-70
2023/01/27 12:37:19;;;;;;;5.07;4.00;;;;;;;;;;5093728;28;20482;-71
2023/01/27 12:39:51;;;;;;;6.40;3.60;;;;;;;;;;5091406;28;20436;-71
2023/01/27 12:42:35;;;;;;;7.90;5.13;;;;;;;;;;5092174;28;20937;-72
2023/01/27 12:45:12;;;;;;;8.97;4.50;;;;;;;;;;5089367;28;20480;-72
2023/01/27 12:47:39;;;;;;;8.23;3.37;;;;;;;;;;5090260;28;20855;-72
2023/01/27 12:50:21;;;;;;;6.37;3.60;;;;;;;;;;5085026;28;20441;-73
2023/01/27 12:52:53;;;;;;;8.13;3.43;;;;;;;;;;5086881;28;20908;-71
2023/01/27 12:55:31;;;;;;;7.33;4.27;;;;;;;;;;5092501;28;20477;-70
2023/01/27 12:57:58;;;;;;;9.43;5.00;;;;;;;;;;5093590;28;20477;-72
2023/01/27 13:00:26;;;;;;;7.23;4.93;;;;;;;;;;5092061;28;20451;-71
2023/01/27 13:02:57;;;;;;;11.90;5.00;;;;;;;;;;5093242;28;20803;-72
2023/01/27 13:05:26;;;;;;;6.37;4.73;;;;;;;;;;5091358;28;20450;-72
2023/01/27 13:07:53;;;;;;;8.30;4.50;;;;;;;;;;5092668;28;20469;-71
2023/01/27 13:10:21;;;;;;;6.90;3.07;;;;;;;;;;5092504;28;20455;-70
2023/01/27 13:12:51;;;;;;;9.57;5.00;;;;;;;;;;5093248;28;20457;-71
2023/01/27 13:15:19;;;;;;;11.00;4.30;;;;;;;;;;5093003;28;20445;-71
2023/01/27 13:17:47;;;;;;;5.33;4.50;;;;;;;;;;5091252;28;20482;-71
2023/01/27 13:20:17;;;;;;;10.53;4.53;;;;;;;;;;5085466;28;20453;-72
2023/01/27 13:22:46;;;;;;;7.50;3.83;;;;;;;;;;5093750;28;20810;-71
2023/01/27 13:25:17;;;;;;;8.33;4.80;;;;;;;;;;5091415;28;20461;-71
2023/01/27 13:27:44;;;;;;;11.50;4.67;;;;;;;;;;5087987;28;20476;-72
2023/01/27 13:30:17;;;;;;;7.47;4.17;;;;;;;;;;5092842;28;20450;-72
2023/01/27 13:32:47;;;;;;;8.40;4.93;;;;;;;;;;5091528;28;20546;-72
2023/01/27 13:35:17;;;;;;;9.27;4.33;;;;;;;;;;5092192;28;20461;-72
2023/01/27 13:37:47;;;;;;;9.37;6.67;;;;;;;;;;5088600;28;20461;-71
2023/01/27 13:40:17;;;;;;;10.70;4.73;;;;;;;;;;5089843;28;20972;-73
2023/01/27 13:42:47;;;;;;;11.87;5.80;;;;;;;;;;5092012;28;20455;-72
2023/01/27 13:45:17;;;;;;;8.40;4.47;;;;;;;;;;5090309;28;20473;-73
2023/01/27 13:47:49;;;;;;;7.80;3.90;;;;;;;;;;5092011;28;20501;-72
2023/01/27 13:50:23;;;;;;;12.07;5.50;;;;;;;;;;5092507;28;20465;-73
2023/01/27 13:52:52;;;;;;;7.57;3.97;;;;;;;;;;5091057;28;20451;-73
2023/01/27 13:55:22;;;;;;;9.13;4.50;;;;;;;;;;5091511;28;20451;-70
2023/01/27 13:57:57;;;;;;;16.30;5.83;;;;;;;;;;5091270;28;20479;-70
2023/01/27 14:00:27;;;;;;;10.90;6.00;;;;;;;;;;5091792;28;20456;-71
2023/01/27 14:03:04;;;;;;;6.83;3.67;;;;;;;;;;5091181;28;20455;-71
2023/01/27 14:05:47;;;;;;;9.00;5.30;;;;;;;;;;5090954;28;20455;-70
2023/01/27 14:08:20;;;;;;;7.93;5.23;;;;;;;;;;5091522;28;20450;-75
2023/01/27 14:10:55;;;;;;;8.70;4.93;;;;;;;;;;5091839;28;20441;-71
2023/01/27 14:13:28;;;;;;;6.60;5.20;;;;;;;;;;5090641;28;20945;-75
2023/01/27 14:16:02;;;;;;;8.80;4.90;;;;;;;;;;5090902;28;20445;-79
2023/01/27 14:18:31;;;;;;;7.23;4.30;;;;;;;;;;5089458;28;20469;-71
2023/01/27 14:21:04;;;;;;;8.50;5.70;;;;;;;;;;5096974;28;20445;-70
2023/01/27 14:23:36;;;;;;;11.93;4.70;;;;;;;;;;5090772;28;20459;-70
2023/01/27 14:26:08;;;;;;;5.90;3.60;;;;;;;;;;5084603;28;20446;-70
2023/01/27 14:28:41;;;;;;;6.83;5.33;;;;;;;;;;5083967;28;20448;-71
2023/01/27 14:31:13;;;;;;;7.27;5.47;;;;;;;;;;5090384;28;20441;-71
2023/01/27 14:33:50;;;;;;;9.40;6.13;;;;;;;;;;5088280;28;20441;-71
2023/01/27 14:36:21;;;;;;;8.90;6.50;;;;;;;;;;5090754;28;20465;-73
2023/01/27 14:38:52;;;;;;;9.07;5.70;;;;;;;;;;5090451;28;20471;-72
2023/01/27 14:41:25;;;;;;;9.83;5.90;;;;;;;;;;5091247;28;20459;-67
2023/01/27 14:43:56;;;;;;;9.60;5.87;;;;;;;;;;5090264;28;20477;-71
2023/01/27 14:46:29;;;;;;;12.67;5.70;;;;;;;;;;5089808;28;20454;-71
2023/01/27 14:48:59;;;;;;;9.87;5.50;;;;;;;;;;5089876;28;20449;-71
2023/01/27 14:51:33;;;;;;;7.17;4.37;;;;;;;;;;5090349;28;20453;-70
2023/01/27 14:54:17;;;;;;;11.03;5.60;;;;;;;;;;5090374;28;20527;-71
2023/01/27 14:56:46;;;;;;;8.40;4.80;;;;;;;;;;5089529;28;20477;-71
2023/01/27 14:59:17;;;;;;;11.40;6.30;;;;;;;;;;5090392;28;20493;-69
2023/01/27 15:01:48;;;;;;;13.83;5.80;;;;;;;;;;5089742;28;20443;-72
2023/01/27 15:04:31;;;;;;;6.07;3.40;;;;;;;;;;5089506;28;20437;-71
2023/01/27 15:07:02;;;;;;;10.27;5.57;;;;;;;;;;5088404;28;20457;-73
2023/01/27 15:09:39;;;;;;;6.23;5.63;;;;;;;;;;5089750;28;20449;-72
2023/01/27 15:12:11;;;;;;;12.40;5.50;;;;;;;;;;5089168;28;20897;-72
2023/01/27 15:14:56;;;;;;;7.57;5.20;;;;;;;;;;5088967;28;20521;-72
2023/01/27 15:17:40;;;;;;;8.60;4.63;;;;;;;;;;5089416;28;20954;-72